sensor_id;sensor_type;location;lat;lon;timestamp;pressure;altitude;pressure_sealevel;temperature;humidity
8575;BME280;4325;42.520;27.448;2023-05-16T00:01:57;100937.00;;;14.39;100.00
8575;BME280;4325;42.520;27.448;2023-05-16T00:04:24;100930.53;;;14.48;100.00
8575;BME280;4325;42.520;27.448;2023-05-16T00:06:51;100936.66;;;14.45;100.00
8575;BME280;4325;42.520;27.448;2023-05-16T00:09:20;100936.59;;;14.50;100.00
8575;BME280;4325;42.520;27.448;2023-05-16T00:11:47;100945.91;;;14.54;100.00
8575;BME280;4325;42.520;27.448;2023-05-16T00:14:14;100966.03;;;14.55;100.00
8575;BME280;4325;42.520;27.448;2023-05-16T00:16:41;100975.66;;;14.58;100.00
8575;BME280;4325;42.520;27.448;2023-05-16T00:19:08;100980.56;;;14.61;100.00
8575;BME280;4325;42.520;27.448;2023-05-16T00:21:35;100991.09;;;14.53;100.00
8575;BME280;4325;42.520;27.448;2023-05-16T00:24:03;100986.91;;;14.61;100.00
8575;BME280;4325;42.520;27.448;2023-05-16T00:26:32;100996.63;;;14.53;100.00
8575;BME280;4325;42.520;27.448;2023-05-16T00:28:58;100989.47;;;14.52;100.00
8575;BME280;4325;42.520;27.448;2023-05-16T00:31:26;100989.22;;;14.49;100.00
8575;BME280;4325;42.520;27.448;2023-05-16T00:33:53;100984.59;;;14.44;100.00
8575;BME280;4325;42.520;27.448;2023-05-16T00:36:20;100989.00;;;14.45;100.00
8575;BME280;4325;42.520;27.448;2023-05-16T00:38:47;100991.16;;;14.48;100.00
8575;BME280;4325;42.520;27.448;2023-05-16T00:41:15;100975.47;;;14.49;100.00
8575;BME280;4325;42.520;27.448;2023-05-16T00:43:43;100978.47;;;14.52;100.00
8575;BME280;4325;42.520;27.448;2023-05-16T00:46:10;100974.31;;;14.55;100.00
8575;BME280;4325;42.520;27.448;2023-05-16T00:48:37;100985.84;;;14.57;100.00
8575;BME280;4325;42.520;27.448;2023-05-16T00:51:04;100985.50;;;14.64;100.00
8575;BME280;4325;42.520;27.448;2023-05-16T00:53:33;100987.66;;;14.67;100.00
8575;BME280;4325;42.520;27.448;2023-05-16T00:56:00;100982.94;;;14.72;100.00
8575;BME280;4325;42.520;27.448;2023-05-16T00:58:29;100970.34;;;14.85;100.00
8575;BME280;4325;42.520;27.448;2023-05-16T01:00:57;100972.38;;;14.79;100.00
8575;BME280;4325;42.520;27.448;2023-05-16T01:03:24;100966.59;;;14.76;100.00
8575;BME280;4325;42.520;27.448;2023-05-16T01:05:52;100961.03;;;14.81;100.00
8575;BME280;4325;42.520;27.448;2023-05-16T01:08:19;100966.03;;;14.79;100.00
8575;BME280;4325;42.520;27.448;2023-05-16T01:10:53;100970.97;;;14.82;100.00
8575;BME280;4325;42.520;27.448;2023-05-16T01:13:30;100964.84;;;14.85;100.00
8575;BME280;4325;42.520;27.448;2023-05-16T01:16:04;100965.66;;;14.85;100.00
8575;BME280;4325;42.520;27.448;2023-05-16T01:18:41;100947.50;;;14.84;100.00
8575;BME280;4325;42.520;27.448;2023-05-16T01:21:12;100960.41;;;14.89;100.00
8575;BME280;4325;42.520;27.448;2023-05-16T01:23:50;100958.75;;;14.88;100.00
8575;BME280;4325;42.520;27.448;2023-05-16T01:26:20;100954.88;;;14.89;100.00
8575;BME280;4325;42.520;27.448;2023-05-16T01:28:49;100942.78;;;14.85;100.00
8575;BME280;4325;42.520;27.448;2023-05-16T01:31:16;100941.44;;;14.82;100.00
8575;BME280;4325;42.520;27.448;2023-05-16T01:33:44;100953.59;;;14.81;100.00
8575;BME280;4325;42.520;27.448;2023-05-16T01:36:16;100936.75;;;14.83;100.00
8575;BME280;4325;42.520;27.448;2023-05-16T01:38:55;100922.97;;;14.83;100.00
8575;BME280;4325;42.520;27.448;2023-05-16T01:41:33;100922.97;;;14.83;100.00
8575;BME280;4325;42.520;27.448;2023-05-16T01:44:04;100907.50;;;14.87;100.00
8575;BME280;4325;42.520;27.448;2023-05-16T01:46:37;100909.56;;;14.95;100.00
8575;BME280;4325;42.520;27.448;2023-05-16T01:49:11;100899.63;;;14.99;100.00
8575;BME280;4325;42.520;27.448;2023-05-16T01:51:44;100899.31;;;15.00;100.00
8575;BME280;4325;42.520;27.448;2023-05-16T01:54:17;100891.34;;;14.99;100.00
8575;BME280;4325;42.520;27.448;2023-05-16T01:56:49;100888.78;;;15.02;100.00
8575;BME280;4325;42.520;27.448;2023-05-16T01:59:18;100892.31;;;15.08;100.00
8575;BME280;4325;42.520;27.448;2023-05-16T02:01:46;100916.00;;;15.09;100.00
8575;BME280;4325;42.520;27.448;2023-05-16T02:04:13;100931.59;;;15.18;100.00
8575;BME280;4325;42.520;27.448;2023-05-16T02:06:40;100931.50;;;15.23;100.00
8575;BME280;4325;42.520;27.448;2023-05-16T02:09:07;100930.72;;;15.23;100.00
8575;BME280;4325;42.520;27.448;2023-05-16T02:11:34;100921.81;;;15.26;100.00
8575;BME280;4325;42.520;27.448;2023-05-16T02:14:02;100922.50;;;15.18;100.00
8575;BME280;4325;42.520;27.448;2023-05-16T02:16:29;100934.25;;;15.23;100.00
8575;BME280;4325;42.520;27.448;2023-05-16T02:18:56;100934.25;;;15.23;100.00
8575;BME280;4325;42.520;27.448;2023-05-16T02:21:23;100944.44;;;15.28;100.00
8575;BME280;4325;42.520;27.448;2023-05-16T02:23:50;100932.69;;;15.36;100.00
8575;BME280;4325;42.520;27.448;2023-05-16T02:26:17;100938.28;;;15.31;100.00
8575;BME280;4325;42.520;27.448;2023-05-16T02:28:45;100956.72;;;15.36;100.00
8575;BME280;4325;42.520;27.448;2023-05-16T02:31:24;100950.38;;;15.35;100.00
8575;BME280;4325;42.520;27.448;2023-05-16T02:33:51;100947.41;;;15.32;100.00
8575;BME280;4325;42.520;27.448;2023-05-16T02:36:18;100937.78;;;15.29;100.00
8575;BME280;4325;42.520;27.448;2023-05-16T02:38:45;100921.59;;;15.23;100.00
8575;BME280;4325;42.520;27.448;2023-05-16T02:41:12;100928.91;;;15.32;100.00
8575;BME280;4325;42.520;27.448;2023-05-16T02:43:39;100934.94;;;15.34;100.00
8575;BME280;4325;42.520;27.448;2023-05-16T02:46:21;100927.63;;;15.43;100.00
8575;BME280;4325;42.520;27.448;2023-05-16T02:48:48;100920.50;;;15.42;100.00
8575;BME280;4325;42.520;27.448;2023-05-16T02:51:14;100916.06;;;15.41;100.00
8575;BME280;4325;42.520;27.448;2023-05-16T02:53:41;100911.66;;;15.45;100.00
8575;BME280;4325;42.520;27.448;2023-05-16T02:56:08;100911.06;;;15.43;100.00
8575;BME280;4325;42.520;27.448;2023-05-16T02:58:35;100912.72;;;15.44;100.00
8575;BME280;4325;42.520;27.448;2023-05-16T03:01:02;100927.41;;;15.40;100.00
8575;BME280;4325;42.520;27.448;2023-05-16T03:03:30;100918.91;;;15.36;100.00
8575;BME280;4325;42.520;27.448;2023-05-16T03:05:57;100924.44;;;15.36;100.00
8575;BME280;4325;42.520;27.448;2023-05-16T03:08:25;100928.25;;;15.40;100.00
8575;BME280;4325;42.520;27.448;2023-05-16T03:10:51;100925.50;;;15.40;100.00
8575;BME280;4325;42.520;27.448;2023-05-16T03:13:18;100935.19;;;15.38;100.00
8575;BME280;4325;42.520;27.448;2023-05-16T03:15:46;100935.38;;;15.41;100.00
8575;BME280;4325;42.520;27.448;2023-05-16T03:18:13;100926.47;;;15.49;100.00
8575;BME280;4325;42.520;27.448;2023-05-16T03:20:41;100931.84;;;15.59;100.00
8575;BME280;4325;42.520;27.448;2023-05-16T03:23:08;100941.16;;;15.63;100.00
8575;BME280;4325;42.520;27.448;2023-05-16T03:25:35;100935.03;;;15.66;100.00
8575;BME280;4325;42.520;27.448;2023-05-16T03:28:02;100937.84;;;15.80;100.00
8575;BME280;4325;42.520;27.448;2023-05-16T03:30:29;100933.53;;;15.74;100.00
8575;BME280;4325;42.520;27.448;2023-05-16T03:32:55;100938.44;;;15.77;100.00
8575;BME280;4325;42.520;27.448;2023-05-16T03:35:22;100931.72;;;15.83;100.00
8575;BME280;4325;42.520;27.448;2023-05-16T03:37:51;100931.56;;;15.93;100.00
8575;BME280;4325;42.520;27.448;2023-05-16T03:40:18;100934.00;;;15.95;100.00
8575;BME280;4325;42.520;27.448;2023-05-16T03:42:46;100934.97;;;16.04;100.00
8575;BME280;4325;42.520;27.448;2023-05-16T03:45:12;100940.81;;;16.16;100.00
8575;BME280;4325;42.520;27.448;2023-05-16T03:47:39;100937.34;;;16.24;100.00
8575;BME280;4325;42.520;27.448;2023-05-16T03:50:07;100942.19;;;16.32;100.00
8575;BME280;4325;42.520;27.448;2023-05-16T03:52:35;100950.88;;;16.39;100.00
8575;BME280;4325;42.520;27.448;2023-05-16T03:55:04;100938.81;;;16.48;100.00
8575;BME280;4325;42.520;27.448;2023-05-16T03:57:32;100939.06;;;16.52;100.00
8575;BME280;4325;42.520;27.448;2023-05-16T03:59:59;100944.19;;;16.59;100.00
8575;BME280;4325;42.520;27.448;2023-05-16T04:02:28;100945.59;;;16.70;100.00
8575;BME280;4325;42.520;27.448;2023-05-16T04:04:55;100943.97;;;16.82;100.00
8575;BME280;4325;42.520;27.448;2023-05-16T04:07:21;100925.66;;;16.86;100.00
8575;BME280;4325;42.520;27.448;2023-05-16T04:09:49;100936.34;;;17.01;100.00
8575;BME280;4325;42.520;27.448;2023-05-16T04:12:18;100936.34;;;17.15;100.00
8575;BME280;4325;42.520;27.448;2023-05-16T04:14:45;100942.66;;;17.29;100.00
8575;BME280;4325;42.520;27.448;2023-05-16T04:17:12;100938.13;;;17.47;100.00
8575;BME280;4325;42.520;27.448;2023-05-16T04:19:38;100938.47;;;17.67;100.00
8575;BME280;4325;42.520;27.448;2023-05-16T04:22:05;100938.44;;;17.81;100.00
8575;BME280;4325;42.520;27.448;2023-05-16T04:24:32;100935.91;;;17.93;100.00
8575;BME280;4325;42.520;27.448;2023-05-16T04:26:59;100935.69;;;18.12;100.00
8575;BME280;4325;42.520;27.448;2023-05-16T04:29:28;100939.75;;;18.36;100.00
8575;BME280;4325;42.520;27.448;2023-05-16T04:31:55;100937.56;;;18.56;100.00
8575;BME280;4325;42.520;27.448;2023-05-16T04:34:22;100945.97;;;18.73;100.00
8575;BME280;4325;42.520;27.448;2023-05-16T04:36:52;100945.53;;;18.88;100.00
8575;BME280;4325;42.520;27.448;2023-05-16T04:39:19;100948.94;;;18.93;100.00
8575;BME280;4325;42.520;27.448;2023-05-16T04:41:46;100936.09;;;19.06;100.00
8575;BME280;4325;42.520;27.448;2023-05-16T04:44:13;100926.47;;;19.21;100.00
8575;BME280;4325;42.520;27.448;2023-05-16T04:46:41;100940.53;;;19.33;100.00
8575;BME280;4325;42.520;27.448;2023-05-16T04:49:08;100938.97;;;19.49;100.00
8575;BME280;4325;42.520;27.448;2023-05-16T04:51:35;100949.75;;;19.76;100.00
8575;BME280;4325;42.520;27.448;2023-05-16T04:54:03;100941.09;;;19.77;100.00
8575;BME280;4325;42.520;27.448;2023-05-16T04:56:29;100937.16;;;19.78;100.00
8575;BME280;4325;42.520;27.448;2023-05-16T04:58:56;100938.16;;;19.65;100.00
8575;BME280;4325;42.520;27.448;2023-05-16T05:01:23;100933.88;;;19.76;100.00
8575;BME280;4325;42.520;27.448;2023-05-16T05:03:51;100931.09;;;19.94;100.00
8575;BME280;4325;42.520;27.448;2023-05-16T05:06:18;100929.78;;;19.91;100.00
8575;BME280;4325;42.520;27.448;2023-05-16T05:08:45;100922.91;;;19.97;100.00
8575;BME280;4325;42.520;27.448;2023-05-16T05:11:12;100910.50;;;19.95;100.00
8575;BME280;4325;42.520;27.448;2023-05-16T05:13:39;100910.84;;;19.85;100.00
8575;BME280;4325;42.520;27.448;2023-05-16T05:16:06;100910.19;;;19.88;100.00
8575;BME280;4325;42.520;27.448;2023-05-16T05:18:33;100916.06;;;19.86;100.00
8575;BME280;4325;42.520;27.448;2023-05-16T05:21:01;100918.53;;;19.70;100.00
8575;BME280;4325;42.520;27.448;2023-05-16T05:23:28;100923.28;;;19.53;100.00
8575;BME280;4325;42.520;27.448;2023-05-16T05:25:56;100922.94;;;19.37;100.00
8575;BME280;4325;42.520;27.448;2023-05-16T05:28:23;100930.09;;;19.30;100.00
8575;BME280;4325;42.520;27.448;2023-05-16T05:30:50;100929.09;;;19.26;100.00
8575;BME280;4325;42.520;27.448;2023-05-16T05:33:17;100929.94;;;19.26;100.00
8575;BME280;4325;42.520;27.448;2023-05-16T05:35:44;100921.81;;;19.38;100.00
8575;BME280;4325;42.520;27.448;2023-05-16T05:38:12;100923.78;;;19.46;100.00
8575;BME280;4325;42.520;27.448;2023-05-16T05:40:39;100926.06;;;19.53;100.00
8575;BME280;4325;42.520;27.448;2023-05-16T05:43:06;100927.03;;;19.48;100.00
8575;BME280;4325;42.520;27.448;2023-05-16T05:45:33;100928.66;;;19.49;100.00
8575;BME280;4325;42.520;27.448;2023-05-16T05:48:00;100923.44;;;19.39;100.00
8575;BME280;4325;42.520;27.448;2023-05-16T05:50:27;100923.47;;;19.56;100.00
8575;BME280;4325;42.520;27.448;2023-05-16T05:52:54;100928.84;;;19.61;100.00
8575;BME280;4325;42.520;27.448;2023-05-16T05:55:22;100939.78;;;19.75;100.00
8575;BME280;4325;42.520;27.448;2023-05-16T05:57:49;100939.41;;;19.94;100.00
8575;BME280;4325;42.520;27.448;2023-05-16T06:00:16;100942.16;;;20.19;100.00
8575;BME280;4325;42.520;27.448;2023-05-16T06:02:43;100937.78;;;20.10;100.00
8575;BME280;4325;42.520;27.448;2023-05-16T06:05:10;100926.81;;;19.96;100.00
8575;BME280;4325;42.520;27.448;2023-05-16T06:07:37;100933.06;;;19.85;100.00
8575;BME280;4325;42.520;27.448;2023-05-16T06:10:05;100931.25;;;19.71;100.00
8575;BME280;4325;42.520;27.448;2023-05-16T06:12:34;100925.72;;;19.37;100.00
8575;BME280;4325;42.520;27.448;2023-05-16T06:15:01;100924.94;;;19.54;100.00
8575;BME280;4325;42.520;27.448;2023-05-16T06:17:28;100929.00;;;19.65;100.00
8575;BME280;4325;42.520;27.448;2023-05-16T06:19:55;100938.78;;;19.97;100.00
8575;BME280;4325;42.520;27.448;2023-05-16T06:22:21;100946.06;;;20.44;100.00
8575;BME280;4325;42.520;27.448;2023-05-16T06:24:48;100942.63;;;20.30;100.00
8575;BME280;4325;42.520;27.448;2023-05-16T06:27:15;100942.50;;;20.26;100.00
8575;BME280;4325;42.520;27.448;2023-05-16T06:29:43;100936.06;;;20.43;100.00
8575;BME280;4325;42.520;27.448;2023-05-16T06:32:10;100941.81;;;20.21;100.00
8575;BME280;4325;42.520;27.448;2023-05-16T06:34:37;100941.50;;;20.31;100.00
8575;BME280;4325;42.520;27.448;2023-05-16T06:37:04;100934.81;;;20.06;100.00
8575;BME280;4325;42.520;27.448;2023-05-16T06:39:31;100932.03;;;20.32;100.00
8575;BME280;4325;42.520;27.448;2023-05-16T06:41:59;100933.41;;;20.55;100.00
8575;BME280;4325;42.520;27.448;2023-05-16T06:44:25;100936.78;;;20.69;100.00
8575;BME280;4325;42.520;27.448;2023-05-16T06:46:54;100949.38;;;20.75;100.00
8575;BME280;4325;42.520;27.448;2023-05-16T06:49:20;100952.34;;;20.99;100.00
8575;BME280;4325;42.520;27.448;2023-05-16T06:51:48;100962.16;;;21.05;100.00
8575;BME280;4325;42.520;27.448;2023-05-16T06:54:15;100963.63;;;21.32;100.00
8575;BME280;4325;42.520;27.448;2023-05-16T06:56:42;100963.03;;;21.27;100.00
8575;BME280;4325;42.520;27.448;2023-05-16T06:59:09;100958.59;;;21.26;100.00
8575;BME280;4325;42.520;27.448;2023-05-16T07:01:35;100954.75;;;21.39;100.00
8575;BME280;4325;42.520;27.448;2023-05-16T07:04:04;100958.41;;;21.31;100.00
8575;BME280;4325;42.520;27.448;2023-05-16T07:06:31;100961.56;;;21.21;100.00
8575;BME280;4325;42.520;27.448;2023-05-16T07:08:58;100947.88;;;21.36;100.00
8575;BME280;4325;42.520;27.448;2023-05-16T07:11:25;100952.50;;;21.53;100.00
8575;BME280;4325;42.520;27.448;2023-05-16T07:13:51;100952.28;;;21.99;100.00
8575;BME280;4325;42.520;27.448;2023-05-16T07:16:18;100946.72;;;22.56;94.75
8575;BME280;4325;42.520;27.448;2023-05-16T07:18:45;100948.72;;;22.56;94.76
8575;BME280;4325;42.520;27.448;2023-05-16T07:21:13;100940.25;;;23.00;92.33
8575;BME280;4325;42.520;27.448;2023-05-16T07:23:40;100945.50;;;23.26;87.97
8575;BME280;4325;42.520;27.448;2023-05-16T07:26:07;100939.69;;;23.07;88.24
8575;BME280;4325;42.520;27.448;2023-05-16T07:28:34;100941.09;;;23.01;89.37
8575;BME280;4325;42.520;27.448;2023-05-16T07:31:01;100931.66;;;23.06;89.29
8575;BME280;4325;42.520;27.448;2023-05-16T07:33:28;100934.59;;;22.97;89.08
8575;BME280;4325;42.520;27.448;2023-05-16T07:35:54;100931.75;;;22.61;90.04
8575;BME280;4325;42.520;27.448;2023-05-16T07:38:23;100943.38;;;22.51;91.97
8575;BME280;4325;42.520;27.448;2023-05-16T07:40:50;100940.63;;;22.63;90.68
8575;BME280;4325;42.520;27.448;2023-05-16T07:43:17;100937.16;;;22.78;89.40
8575;BME280;4325;42.520;27.448;2023-05-16T07:45:44;100939.00;;;22.98;89.83
8575;BME280;4325;42.520;27.448;2023-05-16T07:48:10;100928.97;;;23.21;87.40
8575;BME280;4325;42.520;27.448;2023-05-16T07:50:37;100931.28;;;23.31;86.99
8575;BME280;4325;42.520;27.448;2023-05-16T07:53:04;100941.25;;;23.56;86.01
8575;BME280;4325;42.520;27.448;2023-05-16T07:55:32;100963.94;;;23.67;84.00
8575;BME280;4325;42.520;27.448;2023-05-16T07:57:59;100962.28;;;23.66;83.49
8575;BME280;4325;42.520;27.448;2023-05-16T08:00:26;100969.53;;;23.95;83.24
8575;BME280;4325;42.520;27.448;2023-05-16T08:02:53;100969.03;;;24.33;81.33
8575;BME280;4325;42.520;27.448;2023-05-16T08:05:20;100974.00;;;24.39;77.44
8575;BME280;4325;42.520;27.448;2023-05-16T08:07:48;100972.34;;;24.07;78.17
8575;BME280;4325;42.520;27.448;2023-05-16T08:10:15;100977.72;;;23.88;81.72
8575;BME280;4325;42.520;27.448;2023-05-16T08:12:43;100978.91;;;24.14;80.94
8575;BME280;4325;42.520;27.448;2023-05-16T08:15:12;100978.75;;;24.66;79.38
8575;BME280;4325;42.520;27.448;2023-05-16T08:17:39;100970.47;;;25.01;74.73
8575;BME280;4325;42.520;27.448;2023-05-16T08:20:07;100967.56;;;24.98;74.99
8575;BME280;4325;42.520;27.448;2023-05-16T08:22:34;100967.91;;;25.81;71.32
8575;BME280;4325;42.520;27.448;2023-05-16T08:25:01;100960.50;;;26.95;64.82
8575;BME280;4325;42.520;27.448;2023-05-16T08:27:28;100956.53;;;27.82;57.69
8575;BME280;4325;42.520;27.448;2023-05-16T08:29:56;100949.22;;;28.81;53.58
8575;BME280;4325;42.520;27.448;2023-05-16T08:32:23;100969.47;;;29.48;50.47
8575;BME280;4325;42.520;27.448;2023-05-16T08:34:50;100971.16;;;29.05;51.19
8575;BME280;4325;42.520;27.448;2023-05-16T08:37:17;100970.81;;;29.75;48.86
8575;BME280;4325;42.520;27.448;2023-05-16T08:39:44;100963.47;;;31.34;45.32
8575;BME280;4325;42.520;27.448;2023-05-16T08:42:11;100961.00;;;32.54;41.96
8575;BME280;4325;42.520;27.448;2023-05-16T08:44:38;100954.13;;;33.07;38.99
8575;BME280;4325;42.520;27.448;2023-05-16T08:47:11;100963.84;;;34.44;36.09
8575;BME280;4325;42.520;27.448;2023-05-16T08:49:38;100947.31;;;36.14;33.71
8575;BME280;4325;42.520;27.448;2023-05-16T08:52:07;100930.50;;;37.20;31.27
8575;BME280;4325;42.520;27.448;2023-05-16T08:54:35;100934.75;;;37.28;30.45
8575;BME280;4325;42.520;27.448;2023-05-16T08:57:03;100922.81;;;36.85;31.44
8575;BME280;4325;42.520;27.448;2023-05-16T08:59:31;100922.59;;;38.23;29.31
8575;BME280;4325;42.520;27.448;2023-05-16T09:01:58;100916.28;;;39.38;27.57
8575;BME280;4325;42.520;27.448;2023-05-16T09:04:27;100936.75;;;37.72;28.57
8575;BME280;4325;42.520;27.448;2023-05-16T09:06:54;100940.16;;;36.94;29.80
8575;BME280;4325;42.520;27.448;2023-05-16T09:09:22;100922.50;;;37.44;29.43
8575;BME280;4325;42.520;27.448;2023-05-16T09:11:49;100918.34;;;38.02;28.18
8575;BME280;4325;42.520;27.448;2023-05-16T09:14:16;100929.72;;;38.81;27.14
8575;BME280;4325;42.520;27.448;2023-05-16T09:16:44;100918.03;;;39.79;26.79
8575;BME280;4325;42.520;27.448;2023-05-16T09:19:12;100934.72;;;38.27;27.83
8575;BME280;4325;42.520;27.448;2023-05-16T09:21:40;100931.59;;;36.26;30.25
8575;BME280;4325;42.520;27.448;2023-05-16T09:24:08;100921.19;;;34.18;33.03
8575;BME280;4325;42.520;27.448;2023-05-16T09:26:36;100905.94;;;33.37;34.24
8575;BME280;4325;42.520;27.448;2023-05-16T09:29:09;100902.75;;;33.69;34.60
8575;BME280;4325;42.520;27.448;2023-05-16T09:31:37;100907.16;;;33.73;34.66
8575;BME280;4325;42.520;27.448;2023-05-16T09:34:07;100897.47;;;35.67;32.33
8575;BME280;4325;42.520;27.448;2023-05-16T09:36:35;100891.91;;;37.86;29.04
8575;BME280;4325;42.520;27.448;2023-05-16T09:39:06;100887.34;;;39.45;26.54
8575;BME280;4325;42.520;27.448;2023-05-16T09:41:33;100887.09;;;39.52;26.39
8575;BME280;4325;42.520;27.448;2023-05-16T09:44:03;100894.59;;;39.03;26.27
8575;BME280;4325;42.520;27.448;2023-05-16T09:46:32;100890.13;;;39.36;26.34
8575;BME280;4325;42.520;27.448;2023-05-16T09:48:59;100886.19;;;38.86;26.86
8575;BME280;4325;42.520;27.448;2023-05-16T09:51:26;100884.16;;;38.62;27.09
8575;BME280;4325;42.520;27.448;2023-05-16T09:53:53;100875.22;;;38.22;27.15
8575;BME280;4325;42.520;27.448;2023-05-16T09:56:21;100871.00;;;37.47;27.56
8575;BME280;4325;42.520;27.448;2023-05-16T09:58:51;100864.97;;;36.36;29.33
8575;BME280;4325;42.520;27.448;2023-05-16T10:01:18;100856.88;;;35.63;30.01
8575;BME280;4325;42.520;27.448;2023-05-16T10:03:45;100851.38;;;34.67;31.19
8575;BME280;4325;42.520;27.448;2023-05-16T10:06:12;100859.81;;;33.94;32.19
8575;BME280;4325;42.520;27.448;2023-05-16T10:08:41;100861.94;;;33.86;32.42
8575;BME280;4325;42.520;27.448;2023-05-16T10:11:09;100860.34;;;34.65;31.91
8575;BME280;4325;42.520;27.448;2023-05-16T10:13:38;100861.47;;;36.44;29.62
8575;BME280;4325;42.520;27.448;2023-05-16T10:16:06;100871.34;;;38.41;27.63
8575;BME280;4325;42.520;27.448;2023-05-16T10:18:37;100865.38;;;38.48;27.15
8575;BME280;4325;42.520;27.448;2023-05-16T10:21:05;100863.31;;;39.08;25.63
8575;BME280;4325;42.520;27.448;2023-05-16T10:23:33;100856.59;;;38.55;26.59
8575;BME280;4325;42.520;27.448;2023-05-16T10:26:02;100850.28;;;37.97;26.69
8575;BME280;4325;42.520;27.448;2023-05-16T10:28:30;100844.50;;;37.02;27.19
8575;BME280;4325;42.520;27.448;2023-05-16T10:31:00;100842.84;;;37.17;27.60
8575;BME280;4325;42.520;27.448;2023-05-16T10:33:27;100850.38;;;38.57;26.75
8575;BME280;4325;42.520;27.448;2023-05-16T10:35:54;100859.31;;;39.06;25.59
8575;BME280;4325;42.520;27.448;2023-05-16T10:38:22;100846.44;;;40.28;24.58
8575;BME280;4325;42.520;27.448;2023-05-16T10:40:50;100836.88;;;40.00;24.66
8575;BME280;4325;42.520;27.448;2023-05-16T10:43:24;100835.13;;;41.00;23.91
8575;BME280;4325;42.520;27.448;2023-05-16T10:45:54;100840.84;;;41.55;23.50
8575;BME280;4325;42.520;27.448;2023-05-16T10:48:29;100825.72;;;39.40;24.91
8575;BME280;4325;42.520;27.448;2023-05-16T10:50:56;100819.66;;;37.15;27.06
8575;BME280;4325;42.520;27.448;2023-05-16T10:53:29;100812.16;;;37.21;27.58
8575;BME280;4325;42.520;27.448;2023-05-16T10:56:07;100802.03;;;38.71;26.30
8575;BME280;4325;42.520;27.448;2023-05-16T10:58:45;100809.31;;;40.42;24.33
8575;BME280;4325;42.520;27.448;2023-05-16T11:01:21;100805.69;;;40.60;23.99
8575;BME280;4325;42.520;27.448;2023-05-16T11:04:06;100785.91;;;39.64;24.59
8575;BME280;4325;42.520;27.448;2023-05-16T11:06:43;100773.94;;;38.91;25.36
8575;BME280;4325;42.520;27.448;2023-05-16T11:09:21;100779.44;;;40.12;24.84
8575;BME280;4325;42.520;27.448;2023-05-16T11:11:54;100781.25;;;41.97;23.00
8575;BME280;4325;42.520;27.448;2023-05-16T11:14:22;100786.56;;;43.46;21.68
8575;BME280;4325;42.520;27.448;2023-05-16T11:16:50;100778.41;;;42.30;21.92
8575;BME280;4325;42.520;27.448;2023-05-16T11:19:33;100773.53;;;42.12;22.53
8575;BME280;4325;42.520;27.448;2023-05-16T11:22:11;100766.81;;;42.06;22.44
8575;BME280;4325;42.520;27.448;2023-05-16T11:24:48;100770.41;;;42.48;22.04
8575;BME280;4325;42.520;27.448;2023-05-16T11:27:21;100758.19;;;42.62;21.90
8575;BME280;4325;42.520;27.448;2023-05-16T11:29:49;100759.59;;;42.20;21.88
8575;BME280;4325;42.520;27.448;2023-05-16T11:32:18;100744.41;;;40.36;23.72
8575;BME280;4325;42.520;27.448;2023-05-16T11:34:48;100747.69;;;37.61;26.24
8575;BME280;4325;42.520;27.448;2023-05-16T11:37:17;100751.84;;;35.45;28.99
8575;BME280;4325;42.520;27.448;2023-05-16T11:39:44;100750.44;;;33.21;32.50
8575;BME280;4325;42.520;27.448;2023-05-16T11:42:11;100755.88;;;31.76;35.37
8575;BME280;4325;42.520;27.448;2023-05-16T11:44:39;100750.59;;;30.98;37.04
8575;BME280;4325;42.520;27.448;2023-05-16T11:47:06;100753.81;;;31.04;36.80
8575;BME280;4325;42.520;27.448;2023-05-16T11:49:33;100773.66;;;31.80;36.07
8575;BME280;4325;42.520;27.448;2023-05-16T11:52:02;100791.44;;;32.80;34.88
8575;BME280;4325;42.520;27.448;2023-05-16T11:54:30;100800.38;;;31.72;36.01
8575;BME280;4325;42.520;27.448;2023-05-16T11:56:59;100802.38;;;30.32;39.10
8575;BME280;4325;42.520;27.448;2023-05-16T11:59:26;100787.44;;;28.99;41.88
8575;BME280;4325;42.520;27.448;2023-05-16T12:01:53;100775.66;;;27.81;45.40
8575;BME280;4325;42.520;27.448;2023-05-16T12:04:20;100765.41;;;27.63;47.30
8575;BME280;4325;42.520;27.448;2023-05-16T12:06:57;100777.63;;;28.68;45.80
8575;BME280;4325;42.520;27.448;2023-05-16T12:09:26;100761.91;;;30.98;41.19
8575;BME280;4325;42.520;27.448;2023-05-16T12:11:53;100761.38;;;32.86;36.97
8575;BME280;4325;42.520;27.448;2023-05-16T12:14:21;100754.84;;;32.92;36.30
8575;BME280;4325;42.520;27.448;2023-05-16T12:16:48;100755.56;;;32.18;37.35
8575;BME280;4325;42.520;27.448;2023-05-16T12:19:17;100755.19;;;31.58;38.01
8575;BME280;4325;42.520;27.448;2023-05-16T12:21:44;100748.31;;;30.37;40.70
8575;BME280;4325;42.520;27.448;2023-05-16T12:24:11;100747.00;;;28.67;44.85
8575;BME280;4325;42.520;27.448;2023-05-16T12:26:40;100733.38;;;28.79;44.93
8575;BME280;4325;42.520;27.448;2023-05-16T12:29:07;100724.84;;;29.73;42.88
8575;BME280;4325;42.520;27.448;2023-05-16T12:31:37;100723.47;;;31.15;39.65
8575;BME280;4325;42.520;27.448;2023-05-16T12:34:14;100731.84;;;31.98;37.77
8575;BME280;4325;42.520;27.448;2023-05-16T12:36:41;100717.19;;;33.79;35.09
8575;BME280;4325;42.520;27.448;2023-05-16T12:39:11;100710.13;;;34.99;33.08
8575;BME280;4325;42.520;27.448;2023-05-16T12:41:41;100716.19;;;34.39;33.00
8575;BME280;4325;42.520;27.448;2023-05-16T12:44:12;100716.16;;;33.39;34.33
8575;BME280;4325;42.520;27.448;2023-05-16T12:46:42;100709.91;;;33.21;35.14
8575;BME280;4325;42.520;27.448;2023-05-16T12:49:09;100736.59;;;34.34;33.56
8575;BME280;4325;42.520;27.448;2023-05-16T12:51:36;100736.69;;;35.84;31.68
8575;BME280;4325;42.520;27.448;2023-05-16T12:54:07;100758.03;;;36.12;30.64
8575;BME280;4325;42.520;27.448;2023-05-16T12:56:36;100766.84;;;34.67;32.14
8575;BME280;4325;42.520;27.448;2023-05-16T12:59:04;100757.75;;;34.29;33.20
8575;BME280;4325;42.520;27.448;2023-05-16T13:01:31;100753.84;;;34.66;32.71